Portada
METAR-TAF:

METAR-TAF

Aeropuertos :

Badajoz, España

Aeropuerto de Badajoz

latitud: 38-53N, longitud: 006-49W, altitud: 185 m

Observación

El informe se hizo hace 41 minutos, a las 10:00 UTC
Viento 2 kt con dirección variable
Temperatura 22°C
Humedad 50%
Presión 1014 hPa
Visibilidad 10 km o más
sin nubes por debajo de 1500 m y sin presencia de cumulonimbus.

METAR: LEBZ 211000Z VRB02KT CAVOK 22/11 Q1014

Hora: 12:41 (10:41 UTC)

Pronóstico

El informe se hizo hace 5 horas y 41 minutos, a las 05:00 UTC
Pronóstico válido del 21 a las 06 UTC al 22 a las 06 UTC
Viento 6 kt del oeste
Visibilidad 10 km o más
sin nubes por debajo de 1500 m y sin presencia de cumulonimbus.

TAF: LEBZ 210500Z 2106/2206 27006KT CAVOK TX29/2116Z TN14/2106Z

Observaciones y pronósticos meteorológicos de más de 4000 aeropuertos (mensajes METAR y TAF).

Los puntos amarillos y rojos representan las estaciones disponibles.

Ponga el ratón en el punto deseado para ver el nombre de la estación.

Haga clic para ver las observaciones y los pronósticos meteorológicos.

Para cambiar el mapa : haga clic en los botones verdes con una cruz de color negro para hacer un zoom, en el botón verde con un guión para alejar o en las flechas verdes para mapas adyacentes.


METAR-TAF: